Time;durP1;ratioP1;P1;durP2;ratioP2;P2;SDS_P1;SDS_P2;PMS_P1;PMS_P2;Temp;Humidity;BMP_temperature;BMP_pressure;BME280_temperature;BME280_humidity;BME280_pressure;Samples;Min_cycle;Max_cycle;Signal;HPM_P1;HPM_P2
2021/08/24 00:00:51;;;;;;;13.53;12.73;;;16.50;99.90;;;;;;5015052;28;20461;-69
2021/08/24 00:03:18;;;;;;;13.17;12.50;;;16.50;99.90;;;;;;5014502;28;20485;-69
2021/08/24 00:05:47;;;;;;;13.47;12.97;;;16.50;99.90;;;;;;5014929;28;20454;-69
2021/08/24 00:08:14;;;;;;;12.50;12.07;;;16.40;99.90;;;;;;5019019;28;20499;-69
2021/08/24 00:10:44;;;;;;;13.37;12.67;;;16.40;99.90;;;;;;5034226;28;20457;-69
2021/08/24 00:13:11;;;;;;;13.10;12.50;;;16.30;99.90;;;;;;5012535;28;20479;-69
2021/08/24 00:15:39;;;;;;;13.70;12.70;;;16.30;99.90;;;;;;5014658;28;20932;-69
2021/08/24 00:18:08;;;;;;;13.20;12.70;;;16.40;99.90;;;;;;5014535;28;20485;-69
2021/08/24 00:20:34;;;;;;;12.90;12.40;;;16.30;99.90;;;;;;5014756;28;20503;-69
2021/08/24 00:23:04;;;;;;;13.10;12.50;;;16.30;99.90;;;;;;5014483;28;20470;-69
2021/08/24 00:25:30;;;;;;;13.17;12.53;;;16.40;99.90;;;;;;5014712;28;20541;-69
2021/08/24 00:27:57;;;;;;;12.83;12.20;;;16.40;99.90;;;;;;5031332;28;20449;-69
2021/08/24 00:30:24;;;;;;;13.10;12.50;;;16.50;99.90;;;;;;5033900;28;20634;-69
2021/08/24 00:32:52;;;;;;;13.43;12.83;;;16.40;99.90;;;;;;5033405;28;20465;-69
2021/08/24 00:35:19;;;;;;;12.93;12.13;;;16.50;99.90;;;;;;5033817;28;20836;-69
2021/08/24 00:37:45;;;;;;;13.47;12.90;;;16.60;99.90;;;;;;5018793;28;20457;-69
2021/08/24 00:40:16;;;;;;;12.60;11.80;;;16.50;99.90;;;;;;5014149;28;20962;-69
2021/08/24 00:42:43;;;;;;;13.40;12.80;;;16.50;99.90;;;;;;5013979;28;20532;-69
2021/08/24 00:45:13;;;;;;;12.90;12.10;;;16.40;99.90;;;;;;5014257;28;20438;-69
2021/08/24 00:47:42;;;;;;;13.63;13.03;;;16.40;99.90;;;;;;5027752;28;20993;-69
2021/08/24 00:50:19;;;;;;;12.70;12.20;;;16.40;99.90;;;;;;5033636;28;20448;-69
2021/08/24 00:52:47;;;;;;;13.30;12.50;;;16.40;99.90;;;;;;5033246;28;20473;-69
2021/08/24 00:55:15;;;;;;;12.63;12.03;;;16.50;99.90;;;;;;5033738;28;20445;-69
2021/08/24 00:57:43;;;;;;;12.70;12.10;;;16.60;99.90;;;;;;5019444;28;20998;-69
2021/08/24 01:00:11;;;;;;;12.63;12.13;;;16.60;99.90;;;;;;5013344;28;20489;-69
2021/08/24 01:02:38;;;;;;;12.00;11.60;;;16.50;99.90;;;;;;5012810;28;20481;-69
2021/08/24 01:05:05;;;;;;;12.27;11.77;;;16.50;99.90;;;;;;5013991;28;20454;-69
2021/08/24 01:07:39;;;;;;;13.27;12.60;;;16.50;99.90;;;;;;5026172;28;20465;-69
2021/08/24 01:10:14;;;;;;;12.17;11.67;;;16.30;99.90;;;;;;5033998;28;20445;-69
2021/08/24 01:12:49;;;;;;;12.10;11.53;;;16.20;99.90;;;;;;5033263;28;20527;-69
2021/08/24 01:15:25;;;;;;;13.07;12.27;;;16.10;99.90;;;;;;5033601;28;20864;-69
2021/08/24 01:17:57;;;;;;;12.83;12.20;;;16.00;99.90;;;;;;5018121;28;20446;-69
2021/08/24 01:20:38;;;;;;;12.37;11.80;;;16.00;99.90;;;;;;5013438;28;20438;-69
2021/08/24 01:23:39;;;;;;;13.13;12.33;;;16.10;99.90;;;;;;5017990;28;20468;-69
2021/08/24 01:26:13;;;;;;;12.60;12.00;;;16.00;99.90;;;;;;5031406;28;20451;-69
2021/08/24 01:28:54;;;;;;;12.20;11.70;;;15.90;99.90;;;;;;5033203;28;20463;-69
2021/08/24 01:31:46;;;;;;;12.67;12.17;;;15.80;99.90;;;;;;5032707;28;20456;-69
2021/08/24 01:34:25;;;;;;;12.87;12.27;;;15.70;99.90;;;;;;5019891;28;20458;-69
2021/08/24 01:36:58;;;;;;;12.70;12.20;;;15.60;99.90;;;;;;5013040;28;20970;-69
2021/08/24 01:39:28;;;;;;;12.10;11.50;;;15.60;99.90;;;;;;5016509;28;20492;-71
2021/08/24 01:42:08;;;;;;;13.13;12.57;;;15.50;99.90;;;;;;5012822;28;20456;-69
2021/08/24 01:44:41;;;;;;;12.97;12.17;;;15.40;99.90;;;;;;4993612;28;20455;-69
2021/08/24 01:47:14;;;;;;;13.10;12.50;;;15.40;99.90;;;;;;4993646;28;20462;-69
2021/08/24 01:49:46;;;;;;;13.00;12.50;;;15.40;99.90;;;;;;4993476;28;20458;-69
2021/08/24 01:52:17;;;;;;;12.60;12.00;;;15.30;99.90;;;;;;5025874;28;20974;-69
2021/08/24 01:54:50;;;;;;;13.47;12.77;;;15.30;99.90;;;;;;5032625;28;20441;-69
2021/08/24 01:57:21;;;;;;;12.90;12.30;;;15.20;99.90;;;;;;5032947;28;20445;-69
2021/08/24 01:59:51;;;;;;;12.57;12.07;;;15.20;99.90;;;;;;5032498;28;20496;-69
2021/08/24 02:02:25;;;;;;;12.80;12.20;;;15.20;99.90;;;;;;5014907;28;20844;-69
2021/08/24 02:04:58;;;;;;;12.27;11.77;;;15.20;99.90;;;;;;5012679;28;20450;-69
2021/08/24 02:07:30;;;;;;;12.10;11.60;;;15.20;99.90;;;;;;5012602;28;20457;-69
2021/08/24 02:10:06;;;;;;;12.33;11.73;;;15.30;99.90;;;;;;5012761;28;20453;-69
2021/08/24 02:12:35;;;;;;;11.77;11.33;;;15.40;99.90;;;;;;5030829;28;20829;-69
2021/08/24 02:15:04;;;;;;;13.43;12.83;;;15.40;99.90;;;;;;5032618;28;20449;-69
2021/08/24 02:17:33;;;;;;;12.27;11.77;;;15.30;99.90;;;;;;5032406;28;20456;-69
2021/08/24 02:20:05;;;;;;;12.10;11.60;;;15.30;99.90;;;;;;5031695;28;20990;-69
2021/08/24 02:22:36;;;;;;;12.10;11.60;;;15.30;99.90;;;;;;5032155;28;20465;-69
2021/08/24 02:25:08;;;;;;;12.90;12.20;;;15.20;99.90;;;;;;5032071;28;20459;-69
2021/08/24 02:27:39;;;;;;;12.80;12.20;;;15.20;99.90;;;;;;5032308;28;20445;-69
2021/08/24 02:30:07;;;;;;;13.47;12.77;;;15.00;99.90;;;;;;5020005;28;20446;-69
2021/08/24 02:32:37;;;;;;;12.60;12.10;;;14.90;99.90;;;;;;5012335;28;20477;-69
2021/08/24 02:35:10;;;;;;;13.33;12.73;;;14.80;99.90;;;;;;5012493;28;20807;-69
2021/08/24 02:37:42;;;;;;;13.07;12.30;;;14.80;99.90;;;;;;5012624;28;20458;-69
2021/08/24 02:40:15;;;;;;;12.13;11.73;;;14.90;99.90;;;;;;5024567;28;20477;-69
2021/08/24 02:42:46;;;;;;;12.60;11.90;;;14.80;99.90;;;;;;5031785;28;20491;-69
2021/08/24 02:45:16;;;;;;;11.67;11.27;;;14.80;99.90;;;;;;5031939;28;20437;-69
2021/08/24 02:47:44;;;;;;;12.83;12.30;;;14.80;99.90;;;;;;5032491;28;20445;-68
2021/08/24 02:50:12;;;;;;;12.73;12.07;;;14.70;99.90;;;;;;5019275;28;20446;-69
2021/08/24 02:52:40;;;;;;;12.70;12.10;;;14.70;99.90;;;;;;5011995;28;20470;-69
2021/08/24 02:55:09;;;;;;;12.70;12.10;;;14.80;99.90;;;;;;5012049;28;20962;-69
2021/08/24 02:57:36;;;;;;;12.00;11.50;;;14.80;99.90;;;;;;5012082;28;20454;-69
2021/08/24 03:00:04;;;;;;;11.80;11.30;;;14.70;99.90;;;;;;5022082;28;20559;-69
2021/08/24 03:02:31;;;;;;;11.90;11.40;;;14.70;99.90;;;;;;5031309;28;21163;-69
2021/08/24 03:04:57;;;;;;;13.37;12.77;;;14.70;99.90;;;;;;5031698;28;20445;-69
2021/08/24 03:07:27;;;;;;;12.50;11.90;;;14.60;99.90;;;;;;5031599;28;20453;-69
2021/08/24 03:10:03;;;;;;;12.93;12.07;;;14.60;99.90;;;;;;5021646;28;20434;-69
2021/08/24 03:12:38;;;;;;;13.30;12.60;;;14.60;99.90;;;;;;5011703;28;20596;-69
2021/08/24 03:15:12;;;;;;;12.40;11.90;;;14.60;99.90;;;;;;5011936;28;20473;-69
2021/08/24 03:17:44;;;;;;;12.60;12.00;;;14.50;99.90;;;;;;5012113;28;20947;-69
2021/08/24 03:20:13;;;;;;;12.87;12.27;;;14.50;99.90;;;;;;5023310;28;20484;-69
2021/08/24 03:22:41;;;;;;;12.03;11.53;;;14.50;99.90;;;;;;5031050;28;20476;-69
2021/08/24 03:25:13;;;;;;;12.90;12.10;;;14.50;99.90;;;;;;5030839;28;20974;-69
2021/08/24 03:27:43;;;;;;;12.03;11.63;;;14.40;99.90;;;;;;5031553;28;20449;-69
2021/08/24 03:30:13;;;;;;;12.90;11.93;;;14.40;99.90;;;;;;5019501;28;20446;-69
2021/08/24 03:32:39;;;;;;;12.20;11.70;;;14.40;99.90;;;;;;5011596;28;20470;-69
2021/08/24 03:35:08;;;;;;;12.60;12.10;;;14.40;99.90;;;;;;5011730;28;20450;-69
2021/08/24 03:37:35;;;;;;;12.40;11.90;;;14.40;99.90;;;;;;5011830;28;20466;-69
2021/08/24 03:40:01;;;;;;;11.63;11.20;;;14.40;99.90;;;;;;5021549;28;20485;-69
2021/08/24 03:42:29;;;;;;;12.30;11.80;;;14.40;99.90;;;;;;5030900;28;20473;-69
2021/08/24 03:44:56;;;;;;;13.47;13.07;;;14.30;99.90;;;;;;5031421;28;20448;-69
2021/08/24 03:47:23;;;;;;;13.07;12.47;;;14.40;99.90;;;;;;5023379;28;20525;-69
2021/08/24 03:49:49;;;;;;;13.83;12.20;;;14.40;99.90;;;;;;5011491;28;20438;-69
2021/08/24 03:52:16;;;;;;;12.47;11.87;;;14.40;99.90;;;;;;5011305;28;20484;-69
2021/08/24 03:54:43;;;;;;;12.20;11.70;;;14.40;99.90;;;;;;5011538;28;20473;-69
2021/08/24 03:57:10;;;;;;;12.90;12.20;;;14.30;99.90;;;;;;5015884;28;20461;-69
2021/08/24 03:59:38;;;;;;;12.30;11.83;;;14.30;99.90;;;;;;5031425;28;20484;-69
2021/08/24 04:02:05;;;;;;;14.53;13.40;;;14.30;99.90;;;;;;5030790;28;20479;-69
2021/08/24 04:04:32;;;;;;;13.97;13.30;;;14.20;99.90;;;;;;5031311;28;20449;-69
2021/08/24 04:06:59;;;;;;;14.10;13.50;;;14.20;99.90;;;;;;5027727;28;20453;-69
2021/08/24 04:09:26;;;;;;;14.60;14.00;;;14.10;99.90;;;;;;5010876;28;20449;-69
2021/08/24 04:11:53;;;;;;;15.00;14.13;;;14.00;99.90;;;;;;5011005;28;20457;-69
2021/08/24 04:14:20;;;;;;;15.10;14.30;;;14.00;99.90;;;;;;5011387;28;20457;-69
2021/08/24 04:16:48;;;;;;;14.10;13.50;;;13.90;99.90;;;;;;5012280;28;20800;-69
2021/08/24 04:19:15;;;;;;;16.10;15.10;;;14.00;99.90;;;;;;5030945;28;20485;-69
2021/08/24 04:21:43;;;;;;;15.13;14.27;;;13.90;99.90;;;;;;5030164;28;20484;-68
2021/08/24 04:24:10;;;;;;;16.20;15.37;;;13.90;99.90;;;;;;5030679;28;20449;-69
2021/08/24 04:26:37;;;;;;;15.03;14.43;;;13.80;99.90;;;;;;5030934;28;20449;-69
2021/08/24 04:29:05;;;;;;;16.90;16.00;;;13.80;99.90;;;;;;5030393;28;20456;-69
2021/08/24 04:31:34;;;;;;;15.73;14.87;;;13.70;99.90;;;;;;5029910;28;20446;-68
2021/08/24 04:34:02;;;;;;;16.63;15.57;;;13.80;99.90;;;;;;5028531;28;20457;-69
2021/08/24 04:36:28;;;;;;;16.30;15.50;;;13.70;99.90;;;;;;4992498;28;20945;-70
2021/08/24 04:38:55;;;;;;;16.60;15.73;;;13.70;99.90;;;;;;4993179;28;20447;-70
2021/08/24 04:41:22;;;;;;;16.43;15.63;;;13.60;99.90;;;;;;4993032;28;20487;-70
2021/08/24 04:43:48;;;;;;;16.70;15.90;;;13.60;99.90;;;;;;4992973;28;20470;-70
2021/08/24 04:46:15;;;;;;;16.30;15.40;;;13.60;99.90;;;;;;4993201;28;20454;-69
2021/08/24 04:48:42;;;;;;;17.30;16.00;;;13.60;99.90;;;;;;4994978;28;20458;-69
2021/08/24 04:51:10;;;;;;;16.77;15.80;;;13.60;99.90;;;;;;4994620;28;20454;-70
2021/08/24 04:53:37;;;;;;;15.77;14.97;;;13.60;99.90;;;;;;4995003;28;20466;-69
2021/08/24 04:56:04;;;;;;;16.17;15.30;;;13.60;99.90;;;;;;4994796;28;20455;-70
2021/08/24 04:58:30;;;;;;;15.67;15.07;;;13.60;99.90;;;;;;4994877;28;20457;-70
2021/08/24 05:00:57;;;;;;;15.40;14.60;;;13.50;99.90;;;;;;4994534;28;20490;-70
2021/08/24 05:03:24;;;;;;;15.47;14.57;;;13.60;99.90;;;;;;5040533;23;20855;-72
2021/08/24 05:05:50;;;;;;;16.37;15.60;;;13.60;99.90;;;;;;5025679;28;20433;-68
2021/08/24 05:08:18;;;;;;;16.83;15.93;;;13.60;99.90;;;;;;5033884;28;20475;-71
2021/08/24 05:10:45;;;;;;;15.87;15.00;;;13.60;99.90;;;;;;5033958;28;20930;-71
2021/08/24 05:13:12;;;;;;;16.00;15.20;;;13.60;99.90;;;;;;5033630;28;20461;-70
2021/08/24 05:15:38;;;;;;;16.47;15.67;;;13.60;99.90;;;;;;5033947;28;20437;-70
2021/08/24 05:18:06;;;;;;;17.00;16.10;;;13.60;99.90;;;;;;5033723;28;20452;-70
2021/08/24 05:20:33;;;;;;;15.50;14.80;;;13.60;99.90;;;;;;5033459;28;20484;-70
2021/08/24 05:23:00;;;;;;;16.30;15.60;;;13.60;99.90;;;;;;5033448;28;20457;-69
2021/08/24 05:25:28;;;;;;;16.13;15.33;;;13.70;99.90;;;;;;5033803;28;20806;-69
2021/08/24 05:27:55;;;;;;;16.57;15.80;;;13.70;99.90;;;;;;5033568;28;20445;-69
2021/08/24 05:30:24;;;;;;;17.20;16.20;;;13.80;99.90;;;;;;5033433;28;21117;-69
2021/08/24 05:32:52;;;;;;;16.37;15.57;;;13.80;99.90;;;;;;5033056;28;20497;-69
2021/08/24 05:35:19;;;;;;;16.90;16.00;;;13.90;99.90;;;;;;5033400;28;20449;-69
2021/08/24 05:37:47;;;;;;;17.27;16.17;;;13.90;99.90;;;;;;5033272;28;20456;-69
2021/08/24 05:40:14;;;;;;;16.57;15.87;;;14.00;99.90;;;;;;5033228;28;20503;-69
2021/08/24 05:42:42;;;;;;;16.57;15.87;;;14.10;99.90;;;;;;5032982;28;20504;-69
2021/08/24 05:45:10;;;;;;;16.77;15.87;;;14.20;99.90;;;;;;5033140;28;20448;-70
2021/08/24 05:47:37;;;;;;;16.80;15.87;;;14.40;99.90;;;;;;5032609;28;20452;-69
2021/08/24 05:50:06;;;;;;;16.50;15.87;;;14.50;99.90;;;;;;5032988;28;20452;-69
2021/08/24 05:52:32;;;;;;;17.87;16.87;;;14.60;99.90;;;;;;5032884;28;20460;-69
2021/08/24 05:54:59;;;;;;;17.27;16.47;;;14.70;99.90;;;;;;5032984;28;20938;-69
2021/08/24 05:57:26;;;;;;;18.40;17.10;;;14.80;99.90;;;;;;5033167;28;20449;-69
2021/08/24 05:59:54;;;;;;;17.37;16.33;;;14.90;99.90;;;;;;5032832;28;20516;-69
2021/08/24 06:02:21;;;;;;;18.37;17.30;;;15.00;99.90;;;;;;5032619;28;20464;-69
2021/08/24 06:04:47;;;;;;;17.93;17.13;;;15.00;99.90;;;;;;5032798;28;20453;-70
2021/08/24 06:07:14;;;;;;;18.50;17.53;;;15.10;99.90;;;;;;5032818;28;20446;-69
2021/08/24 06:09:41;;;;;;;17.87;16.87;;;15.20;99.90;;;;;;5032709;28;20806;-69
2021/08/24 06:12:08;;;;;;;19.37;17.90;;;15.30;99.90;;;;;;5032247;28;20804;-69
2021/08/24 06:14:36;;;;;;;18.40;17.17;;;15.40;99.90;;;;;;5032802;28;20442;-69
2021/08/24 06:17:04;;;;;;;17.50;16.70;;;15.50;99.90;;;;;;5032625;28;20514;-69
2021/08/24 06:19:31;;;;;;;18.80;17.50;;;15.70;99.90;;;;;;5032645;28;20452;-69
2021/08/24 06:22:00;;;;;;;19.93;18.83;;;15.70;99.90;;;;;;5032315;28;20480;-70
2021/08/24 06:24:27;;;;;;;18.53;17.63;;;15.90;99.90;;;;;;5032480;28;20452;-69
2021/08/24 06:26:54;;;;;;;18.07;17.10;;;16.00;99.90;;;;;;5032497;28;20445;-70
2021/08/24 06:29:21;;;;;;;18.47;17.30;;;16.10;99.90;;;;;;5032203;28;20452;-70
2021/08/24 06:31:51;;;;;;;18.10;17.20;;;16.10;99.90;;;;;;5032092;28;20448;-69
2021/08/24 06:34:20;;;;;;;17.37;16.67;;;16.20;99.90;;;;;;5032540;28;20496;-69
2021/08/24 06:36:49;;;;;;;17.37;16.50;;;16.30;99.90;;;;;;5031937;28;20453;-69
2021/08/24 06:39:16;;;;;;;17.90;17.10;;;16.30;99.90;;;;;;5032025;28;20454;-69
2021/08/24 06:41:42;;;;;;;17.60;16.40;;;16.40;99.90;;;;;;5031238;28;20484;-69
2021/08/24 06:44:10;;;;;;;17.37;16.60;;;16.50;99.90;;;;;;5031868;28;20476;-69
2021/08/24 06:46:38;;;;;;;17.03;16.20;;;16.60;99.90;;;;;;5032162;28;20792;-69
2021/08/24 06:49:05;;;;;;;17.97;17.07;;;16.70;99.90;;;;;;5031967;28;20833;-69
2021/08/24 06:51:35;;;;;;;17.73;16.97;;;16.80;99.90;;;;;;5031761;28;20437;-69
2021/08/24 06:54:02;;;;;;;17.27;16.57;;;16.90;99.90;;;;;;5031859;28;20465;-70
2021/08/24 06:56:29;;;;;;;16.90;16.17;;;16.90;99.90;;;;;;5032020;28;20445;-69
2021/08/24 06:58:55;;;;;;;16.50;15.80;;;17.10;99.90;;;;;;5031050;28;20809;-69
2021/08/24 07:01:24;;;;;;;16.57;15.77;;;17.10;99.90;;;;;;5031642;28;21108;-69
2021/08/24 07:03:52;;;;;;;17.20;16.40;;;17.20;99.90;;;;;;5031548;28;20981;-68
2021/08/24 07:06:18;;;;;;;16.90;16.20;;;17.30;99.90;;;;;;5031765;28;20449;-69
2021/08/24 07:08:46;;;;;;;17.27;16.47;;;17.40;99.90;;;;;;5031700;28;20514;-69
2021/08/24 07:11:13;;;;;;;16.77;16.07;;;17.50;99.90;;;;;;5031755;28;20471;-69
2021/08/24 07:13:40;;;;;;;17.37;16.57;;;17.60;99.90;;;;;;5031758;28;20468;-69
2021/08/24 07:16:08;;;;;;;18.13;17.33;;;17.60;99.90;;;;;;5031569;28;20938;-68
2021/08/24 07:18:36;;;;;;;17.37;16.63;;;17.60;99.90;;;;;;5031843;28;20456;-69
2021/08/24 07:21:03;;;;;;;17.53;16.73;;;17.70;99.90;;;;;;5031406;28;20476;-69
2021/08/24 07:23:30;;;;;;;16.70;16.00;;;17.80;99.90;;;;;;5031500;28;20465;-68
2021/08/24 07:25:58;;;;;;;17.80;16.90;;;17.90;99.90;;;;;;5031523;28;20809;-69
2021/08/24 07:28:25;;;;;;;17.60;16.90;;;17.90;99.90;;;;;;5031592;28;20441;-69
2021/08/24 07:30:52;;;;;;;17.40;16.60;;;17.90;99.90;;;;;;5031427;28;20433;-69
2021/08/24 07:33:19;;;;;;;17.83;17.03;;;17.90;99.90;;;;;;5031202;28;20883;-69
2021/08/24 07:35:47;;;;;;;18.23;17.33;;;18.00;99.90;;;;;;5031411;28;20464;-69
2021/08/24 07:38:15;;;;;;;18.03;17.13;;;18.00;99.90;;;;;;5031453;28;20864;-69
2021/08/24 07:40:42;;;;;;;18.90;17.80;;;18.10;99.90;;;;;;5031370;28;20480;-69
2021/08/24 07:43:10;;;;;;;18.10;17.30;;;18.20;99.90;;;;;;5031180;28;20469;-69
2021/08/24 07:45:37;;;;;;;18.73;17.80;;;18.20;99.90;;;;;;5031290;28;20441;-69
2021/08/24 07:48:05;;;;;;;18.57;17.67;;;18.20;99.90;;;;;;5031333;28;20536;-69
2021/08/24 07:50:32;;;;;;;19.10;18.00;;;18.30;99.90;;;;;;5031380;28;20448;-69
2021/08/24 07:52:59;;;;;;;19.80;18.80;;;18.30;99.90;;;;;;5031112;28;20472;-69
2021/08/24 07:55:25;;;;;;;21.80;20.60;;;18.30;99.90;;;;;;5031278;28;20448;-69
2021/08/24 07:57:52;;;;;;;18.77;17.90;;;18.50;99.90;;;;;;5031301;28;20445;-69
2021/08/24 08:00:21;;;;;;;18.67;17.87;;;18.50;99.90;;;;;;5031400;28;20456;-69
2021/08/24 08:02:47;;;;;;;18.63;17.83;;;18.60;99.90;;;;;;5030832;28;20480;-69
2021/08/24 08:05:17;;;;;;;19.40;18.40;;;18.60;99.90;;;;;;5030986;28;20452;-69
2021/08/24 08:07:44;;;;;;;18.20;17.40;;;18.70;99.90;;;;;;5031036;28;20528;-69
2021/08/24 08:10:11;;;;;;;17.57;16.77;;;18.70;99.90;;;;;;5032112;28;21026;-69
2021/08/24 08:12:38;;;;;;;18.27;17.47;;;18.80;99.90;;;;;;5034709;28;20464;-71
2021/08/24 08:15:07;;;;;;;17.80;17.10;;;19.00;99.90;;;;;;5035021;28;20841;-70
2021/08/24 08:17:35;;;;;;;17.77;17.00;;;19.10;99.90;;;;;;5034673;28;20460;-70
2021/08/24 08:20:01;;;;;;;17.40;16.70;;;19.10;99.90;;;;;;5034925;28;20449;-70
2021/08/24 08:22:28;;;;;;;17.33;16.67;;;19.20;99.90;;;;;;5034332;28;21001;-70
2021/08/24 08:24:55;;;;;;;17.60;17.00;;;19.30;99.90;;;;;;5034750;28;20445;-69
2021/08/24 08:27:21;;;;;;;18.77;17.97;;;19.30;99.90;;;;;;5034767;28;20456;-69
2021/08/24 08:29:48;;;;;;;18.30;17.40;;;19.30;99.90;;;;;;5034568;28;20517;-71
2021/08/24 08:32:23;;;;;;;18.90;17.90;;;19.50;99.90;;;;;;5034259;28;20946;-70
2021/08/24 08:34:52;;;;;;;18.10;17.40;;;19.50;99.90;;;;;;5034381;28;20455;-71
2021/08/24 08:37:20;;;;;;;18.00;17.27;;;19.60;99.90;;;;;;5034646;28;20821;-70
2021/08/24 08:39:46;;;;;;;18.77;17.77;;;19.70;99.90;;;;;;5034454;28;20455;-71
2021/08/24 08:42:30;;;;;;;18.17;17.47;;;19.80;99.90;;;;;;5034081;28;20819;-70
2021/08/24 08:45:02;;;;;;;18.97;18.17;;;19.70;99.20;;;;;;5034342;28;20445;-70
2021/08/24 08:47:42;;;;;;;17.80;17.00;;;19.70;96.60;;;;;;5034312;28;20556;-70
2021/08/24 08:50:22;;;;;;;18.90;17.77;;;19.80;95.30;;;;;;5034470;28;20441;-71
2021/08/24 08:52:57;;;;;;;18.30;17.67;;;19.90;94.60;;;;;;5033964;28;20473;-71
2021/08/24 08:55:31;;;;;;;18.90;18.20;;;20.00;94.00;;;;;;5034189;28;20443;-70
2021/08/24 08:58:07;;;;;;;19.40;18.60;;;20.00;92.50;;;;;;5034260;28;20448;-70
2021/08/24 09:00:46;;;;;;;18.73;17.80;;;20.00;91.60;;;;;;5034153;28;20860;-70
2021/08/24 09:03:17;;;;;;;19.57;18.57;;;20.20;91.50;;;;;;5033064;28;20538;-69
2021/08/24 09:05:47;;;;;;;19.10;18.13;;;20.30;91.40;;;;;;5033068;28;20471;-70
2021/08/24 09:08:17;;;;;;;19.23;18.43;;;20.40;91.50;;;;;;5032922;28;20837;-70
2021/08/24 09:10:46;;;;;;;19.07;18.27;;;20.50;91.10;;;;;;5032841;28;20445;-70
2021/08/24 09:13:17;;;;;;;18.47;17.77;;;20.40;89.20;;;;;;5032529;28;20989;-70
2021/08/24 09:15:48;;;;;;;18.93;18.10;;;20.50;90.90;;;;;;5032683;28;20441;-70
2021/08/24 09:18:18;;;;;;;20.87;19.73;;;20.60;91.40;;;;;;5032768;28;20449;-70
2021/08/24 09:20:59;;;;;;;19.30;18.40;;;20.70;90.30;;;;;;5032593;28;21077;-68
2021/08/24 09:23:26;;;;;;;19.90;19.00;;;20.70;89.90;;;;;;5031587;28;20465;-70
2021/08/24 09:26:03;;;;;;;19.50;18.70;;;20.80;88.40;;;;;;5032428;28;20949;-70
2021/08/24 09:28:31;;;;;;;19.40;18.60;;;20.70;88.40;;;;;;5032569;28;20448;-70
2021/08/24 09:30:59;;;;;;;20.13;18.93;;;20.80;83.90;;;;;;5032300;28;20437;-70
2021/08/24 09:33:28;;;;;;;20.20;19.30;;;20.70;83.00;;;;;;5032451;28;20472;-68
2021/08/24 09:35:57;;;;;;;20.13;19.33;;;20.80;83.40;;;;;;5032377;28;20468;-70
2021/08/24 09:38:27;;;;;;;19.83;18.90;;;20.80;81.90;;;;;;5032482;28;20444;-70
2021/08/24 09:40:55;;;;;;;19.23;18.43;;;20.80;82.80;;;;;;5032178;28;20455;-67
2021/08/24 09:43:30;;;;;;;19.37;18.63;;;20.90;81.50;;;;;;5032143;28;20469;-69
2021/08/24 09:46:06;;;;;;;20.83;19.83;;;21.00;80.60;;;;;;5032221;28;20449;-70
2021/08/24 09:48:49;;;;;;;20.03;19.03;;;21.20;82.60;;;;;;5032241;28;20454;-70
2021/08/24 09:51:27;;;;;;;19.00;18.20;;;21.30;82.20;;;;;;5032230;28;20445;-69
2021/08/24 09:53:56;;;;;;;18.53;17.63;;;21.40;81.80;;;;;;5032125;28;20477;-70
2021/08/24 09:56:25;;;;;;;19.40;18.70;;;21.40;81.20;;;;;;5032149;28;20451;-69
2021/08/24 09:58:53;;;;;;;18.93;18.23;;;21.50;76.70;;;;;;5032101;28;20448;-70
2021/08/24 10:01:20;;;;;;;20.20;19.30;;;21.40;70.30;;;;;;5031748;28;20477;-70
2021/08/24 10:03:55;;;;;;;19.97;19.17;;;21.30;69.20;;;;;;4997172;28;1010254;-70
2021/08/24 10:06:26;;;;;;;20.17;19.03;;;21.40;69.70;;;;;;5032698;28;20209;-70
2021/08/24 10:08:55;;;;;;;19.93;18.83;;;21.40;67.50;;;;;;5032690;28;20453;-70
2021/08/24 10:11:28;;;;;;;19.53;18.50;;;21.50;69.50;;;;;;5032440;28;20437;-70
2021/08/24 10:14:08;;;;;;;19.27;18.57;;;21.60;67.30;;;;;;5032644;28;20519;-70
2021/08/24 10:16:35;;;;;;;19.23;18.33;;;21.50;65.80;;;;;;5032770;28;20445;-70
2021/08/24 10:19:08;;;;;;;19.53;18.70;;;21.60;66.20;;;;;;5032584;28;20449;-70
2021/08/24 10:21:42;;;;;;;19.93;18.90;;;21.70;67.50;;;;;;5032375;28;20481;-70
2021/08/24 10:24:13;;;;;;;19.80;19.00;;;21.80;65.00;;;;;;5032315;28;20465;-70
2021/08/24 10:26:42;;;;;;;19.73;18.87;;;21.90;65.00;;;;;;5032534;28;20448;-70
2021/08/24 10:29:11;;;;;;;20.53;19.53;;;22.00;65.20;;;;;;5032217;28;20472;-70
2021/08/24 10:31:40;;;;;;;20.40;19.43;;;22.20;64.10;;;;;;5032188;28;20449;-70
2021/08/24 10:34:11;;;;;;;20.87;19.90;;;22.40;63.70;;;;;;5031873;28;20465;-70
2021/08/24 10:36:42;;;;;;;21.60;20.70;;;22.60;64.00;;;;;;5032221;28;20452;-70
2021/08/24 10:39:25;;;;;;;20.77;19.57;;;22.80;63.30;;;;;;5032422;28;20445;-69
2021/08/24 10:42:03;;;;;;;20.30;19.40;;;22.70;60.60;;;;;;5032016;28;20491;-68
2021/08/24 10:44:42;;;;;;;20.60;19.70;;;22.80;62.40;;;;;;5032330;28;20480;-68
2021/08/24 10:47:24;;;;;;;20.70;19.80;;;22.90;61.30;;;;;;5032135;28;20452;-69
2021/08/24 10:49:52;;;;;;;20.70;19.70;;;22.90;62.30;;;;;;5032097;28;21182;-68
2021/08/24 10:52:37;;;;;;;22.40;21.13;;;23.00;60.90;;;;;;5031854;28;20449;-69
2021/08/24 10:55:10;;;;;;;20.50;19.70;;;23.00;57.60;;;;;;5031728;28;20793;-68
2021/08/24 10:57:50;;;;;;;20.63;19.63;;;22.90;57.70;;;;;;5031997;28;20805;-69
2021/08/24 11:00:30;;;;;;;21.33;20.37;;;23.20;58.30;;;;;;5032054;28;20451;-68
2021/08/24 11:03:07;;;;;;;21.67;20.70;;;23.10;56.20;;;;;;5031965;28;20488;-70
2021/08/24 11:05:44;;;;;;;21.97;20.97;;;23.00;55.20;;;;;;5031716;28;20445;-69
2021/08/24 11:08:27;;;;;;;21.70;20.80;;;23.40;55.70;;;;;;5031667;28;20822;-70
2021/08/24 11:11:01;;;;;;;22.60;21.37;;;23.90;56.60;;;;;;5031849;28;20464;-69
2021/08/24 11:13:40;;;;;;;22.83;21.73;;;24.40;56.50;;;;;;5031884;28;20468;-70
2021/08/24 11:16:19;;;;;;;22.03;21.03;;;24.90;56.90;;;;;;5031745;28;20547;-69
2021/08/24 11:18:50;;;;;;;22.80;21.80;;;25.30;54.80;;;;;;5031689;28;20444;-69
2021/08/24 11:21:27;;;;;;;21.67;20.77;;;25.60;53.70;;;;;;5031642;28;20444;-70
2021/08/24 11:24:10;;;;;;;23.40;22.30;;;26.00;52.60;;;;;;5031397;28;20473;-70
2021/08/24 11:26:45;;;;;;;22.47;21.53;;;25.90;50.70;;;;;;5031694;28;20452;-70
2021/08/24 11:29:25;;;;;;;23.70;22.40;;;26.50;49.60;;;;;;5031570;28;20455;-70
2021/08/24 11:31:57;;;;;;;23.23;22.20;;;27.00;48.20;;;;;;5031313;28;20441;-70
2021/08/24 11:34:27;;;;;;;21.83;20.83;;;27.20;47.10;;;;;;5031441;28;20476;-69
2021/08/24 11:37:00;;;;;;;22.67;21.70;;;27.30;45.60;;;;;;5031479;28;20941;-70
2021/08/24 11:39:35;;;;;;;22.33;21.17;;;27.60;45.50;;;;;;5031586;28;20479;-70
2021/08/24 11:42:04;;;;;;;22.20;21.30;;;29.10;44.90;;;;;;5031385;28;20527;-70
2021/08/24 11:44:36;;;;;;;23.43;22.43;;;30.10;42.60;;;;;;5031752;28;20448;-71
2021/08/24 11:47:09;;;;;;;22.93;22.03;;;31.60;40.70;;;;;;5035792;28;20452;-70
2021/08/24 11:49:40;;;;;;;23.40;22.30;;;32.90;38.40;;;;;;5035508;28;20440;-70
2021/08/24 11:52:14;;;;;;;23.13;22.23;;;33.60;35.60;;;;;;5035121;28;20436;-71
2021/08/24 11:54:50;;;;;;;23.13;22.20;;;34.80;34.30;;;;;;5035700;28;20448;-70
2021/08/24 11:57:26;;;;;;;23.65;22.65;;;35.50;32.10;;;;;;5035563;28;20292;-70
2021/08/24 11:59:54;;;;;;;24.08;23.08;;;35.40;32.20;;;;;;5035572;28;20209;-71
2021/08/24 12:02:24;;;;;;;23.15;22.15;;;35.10;31.20;;;;;;5034541;28;20328;-71
2021/08/24 12:04:52;;;;;;;23.90;22.90;;;36.60;29.80;;;;;;5035344;28;20209;-70
2021/08/24 12:07:27;;;;;;;24.30;23.30;;;37.90;28.60;;;;;;5035011;28;20232;-71
2021/08/24 12:09:55;;;;;;;22.83;21.92;;;39.00;27.70;;;;;;5035222;28;20224;-71
2021/08/24 12:12:50;;;;;;;22.75;21.85;;;40.10;27.20;;;;;;5034898;28;20225;-71
2021/08/24 12:15:37;;;;;;;23.77;22.70;;;41.10;26.00;;;;;;5030238;28;20209;-70
2021/08/24 12:18:24;;;;;;;23.65;22.75;;;40.70;25.30;;;;;;5035019;28;20218;-71
2021/08/24 12:20:53;;;;;;;24.10;23.10;;;41.60;25.50;;;;;;5034909;28;20205;-70
2021/08/24 12:23:34;;;;;;;23.27;22.38;;;40.90;24.40;;;;;;5034668;28;20233;-71
2021/08/24 12:26:28;;;;;;;23.02;22.02;;;40.60;24.50;;;;;;5034833;28;20212;-71
2021/08/24 12:28:57;;;;;;;23.17;22.27;;;39.50;25.00;;;;;;5034832;28;20210;-71
2021/08/24 12:31:37;;;;;;;23.60;22.70;;;39.40;25.10;;;;;;5034417;28;20209;-71
2021/08/24 12:34:46;;;;;;;23.13;22.23;;;40.50;24.90;;;;;;5034574;28;20237;-72
2021/08/24 12:37:57;;;;;;;23.48;22.45;;;41.30;24.70;;;;;;5034778;28;20206;-72
2021/08/24 12:40:38;;;;;;;22.92;22.02;;;43.00;23.50;;;;;;4973629;28;20215;-71
2021/08/24 12:43:37;;;;;;;24.25;23.23;;;44.50;23.10;;;;;;5025579;28;20710;-71